sensor_id;sensor_type;location;lat;lon;timestamp;P1;durP1;ratioP1;P2;durP2;ratioP2
64923;SDS011;51436;44.692;39.214;2022-08-05T00:03:42;13.80;;;6.00;;
64923;SDS011;51436;44.692;39.214;2022-08-05T00:06:09;8.10;;;6.07;;
64923;SDS011;51436;44.692;39.214;2022-08-05T00:08:36;7.55;;;5.72;;
64923;SDS011;51436;44.692;39.214;2022-08-05T00:11:04;12.00;;;6.35;;
64923;SDS011;51436;44.692;39.214;2022-08-05T00:13:35;9.13;;;6.22;;
64923;SDS011;51436;44.692;39.214;2022-08-05T00:16:03;8.00;;;6.07;;
64923;SDS011;51436;44.692;39.214;2022-08-05T00:18:30;6.45;;;5.57;;
64923;SDS011;51436;44.692;39.214;2022-08-05T00:20:56;8.65;;;6.57;;
64923;SDS011;51436;44.692;39.214;2022-08-05T00:23:23;11.05;;;6.15;;
64923;SDS011;51436;44.692;39.214;2022-08-05T00:25:49;7.72;;;6.63;;
64923;SDS011;51436;44.692;39.214;2022-08-05T00:28:16;10.38;;;5.63;;
64923;SDS011;51436;44.692;39.214;2022-08-05T00:30:42;10.73;;;6.43;;
64923;SDS011;51436;44.692;39.214;2022-08-05T00:33:09;6.63;;;5.95;;
64923;SDS011;51436;44.692;39.214;2022-08-05T00:35:36;13.00;;;6.15;;
64923;SDS011;51436;44.692;39.214;2022-08-05T00:38:02;13.70;;;6.07;;
64923;SDS011;51436;44.692;39.214;2022-08-05T00:40:28;9.60;;;6.32;;
64923;SDS011;51436;44.692;39.214;2022-08-05T00:42:56;8.70;;;6.20;;
64923;SDS011;51436;44.692;39.214;2022-08-05T00:45:23;7.88;;;6.05;;
64923;SDS011;51436;44.692;39.214;2022-08-05T00:47:50;8.40;;;5.85;;
64923;SDS011;51436;44.692;39.214;2022-08-05T00:50:16;8.30;;;6.28;;
64923;SDS011;51436;44.692;39.214;2022-08-05T00:52:42;9.63;;;6.45;;
64923;SDS011;51436;44.692;39.214;2022-08-05T00:55:09;6.68;;;5.95;;
64923;SDS011;51436;44.692;39.214;2022-08-05T00:57:36;8.10;;;5.80;;
64923;SDS011;51436;44.692;39.214;2022-08-05T01:00:03;10.82;;;6.10;;
64923;SDS011;51436;44.692;39.214;2022-08-05T01:02:31;9.32;;;6.22;;
64923;SDS011;51436;44.692;39.214;2022-08-05T01:04:57;9.63;;;6.13;;
64923;SDS011;51436;44.692;39.214;2022-08-05T01:07:24;7.35;;;6.28;;
64923;SDS011;51436;44.692;39.214;2022-08-05T01:09:50;7.38;;;5.90;;
64923;SDS011;51436;44.692;39.214;2022-08-05T01:12:17;6.90;;;5.53;;
64923;SDS011;51436;44.692;39.214;2022-08-05T01:17:48;9.07;;;5.72;;
64923;SDS011;51436;44.692;39.214;2022-08-05T01:20:39;12.95;;;5.35;;
64923;SDS011;51436;44.692;39.214;2022-08-05T01:26:20;11.13;;;5.93;;
64923;SDS011;51436;44.692;39.214;2022-08-05T01:29:01;12.13;;;5.93;;
64923;SDS011;51436;44.692;39.214;2022-08-05T01:31:36;9.65;;;5.93;;
64923;SDS011;51436;44.692;39.214;2022-08-05T01:34:08;14.30;;;6.47;;
64923;SDS011;51436;44.692;39.214;2022-08-05T01:36:48;7.45;;;6.10;;
64923;SDS011;51436;44.692;39.214;2022-08-05T01:39:18;11.02;;;7.00;;
64923;SDS011;51436;44.692;39.214;2022-08-05T01:41:48;7.57;;;6.32;;
64923;SDS011;51436;44.692;39.214;2022-08-05T01:44:15;13.32;;;6.07;;
64923;SDS011;51436;44.692;39.214;2022-08-05T01:46:44;9.77;;;6.60;;
64923;SDS011;51436;44.692;39.214;2022-08-05T01:49:11;10.77;;;6.53;;
64923;SDS011;51436;44.692;39.214;2022-08-05T01:51:48;10.55;;;6.38;;
64923;SDS011;51436;44.692;39.214;2022-08-05T01:54:15;13.02;;;6.07;;
64923;SDS011;51436;44.692;39.214;2022-08-05T01:56:45;9.38;;;6.10;;
64923;SDS011;51436;44.692;39.214;2022-08-05T01:59:14;17.15;;;6.50;;
64923;SDS011;51436;44.692;39.214;2022-08-05T02:01:42;8.82;;;6.28;;
64923;SDS011;51436;44.692;39.214;2022-08-05T02:04:13;14.65;;;6.80;;
64923;SDS011;51436;44.692;39.214;2022-08-05T02:06:41;10.80;;;6.57;;
64923;SDS011;51436;44.692;39.214;2022-08-05T02:09:07;10.82;;;6.78;;
64923;SDS011;51436;44.692;39.214;2022-08-05T02:11:40;10.52;;;6.18;;
64923;SDS011;51436;44.692;39.214;2022-08-05T02:14:39;25.60;;;6.20;;
64923;SDS011;51436;44.692;39.214;2022-08-05T02:17:15;29.50;;;7.15;;
64923;SDS011;51436;44.692;39.214;2022-08-05T02:19:50;15.65;;;6.28;;
64923;SDS011;51436;44.692;39.214;2022-08-05T02:22:29;13.05;;;6.18;;
64923;SDS011;51436;44.692;39.214;2022-08-05T02:25:07;6.40;;;5.80;;
64923;SDS011;51436;44.692;39.214;2022-08-05T02:27:39;8.50;;;5.78;;
64923;SDS011;51436;44.692;39.214;2022-08-05T02:30:07;15.98;;;7.32;;
64923;SDS011;51436;44.692;39.214;2022-08-05T02:32:36;30.73;;;7.15;;
64923;SDS011;51436;44.692;39.214;2022-08-05T02:35:05;51.00;;;7.20;;
64923;SDS011;51436;44.692;39.214;2022-08-05T02:37:37;13.95;;;6.97;;
64923;SDS011;51436;44.692;39.214;2022-08-05T02:40:05;11.57;;;5.82;;
64923;SDS011;51436;44.692;39.214;2022-08-05T02:42:33;7.90;;;5.72;;
64923;SDS011;51436;44.692;39.214;2022-08-05T02:45:01;9.57;;;5.70;;
64923;SDS011;51436;44.692;39.214;2022-08-05T02:47:29;10.70;;;5.90;;
64923;SDS011;51436;44.692;39.214;2022-08-05T02:49:59;12.63;;;5.80;;
64923;SDS011;51436;44.692;39.214;2022-08-05T02:52:27;10.13;;;5.97;;
64923;SDS011;51436;44.692;39.214;2022-08-05T02:54:55;8.48;;;6.25;;
64923;SDS011;51436;44.692;39.214;2022-08-05T02:57:22;9.82;;;6.20;;
64923;SDS011;51436;44.692;39.214;2022-08-05T02:59:50;13.02;;;5.80;;
64923;SDS011;51436;44.692;39.214;2022-08-05T03:02:18;9.25;;;5.97;;
64923;SDS011;51436;44.692;39.214;2022-08-05T03:04:47;7.30;;;5.65;;
64923;SDS011;51436;44.692;39.214;2022-08-05T03:07:17;15.07;;;6.53;;
64923;SDS011;51436;44.692;39.214;2022-08-05T03:09:44;13.50;;;6.35;;
64923;SDS011;51436;44.692;39.214;2022-08-05T03:12:32;10.80;;;6.07;;
64923;SDS011;51436;44.692;39.214;2022-08-05T03:14:59;8.52;;;6.18;;
64923;SDS011;51436;44.692;39.214;2022-08-05T03:17:26;13.80;;;6.45;;
64923;SDS011;51436;44.692;39.214;2022-08-05T03:19:53;12.02;;;6.70;;
64923;SDS011;51436;44.692;39.214;2022-08-05T03:22:19;11.70;;;6.05;;
64923;SDS011;51436;44.692;39.214;2022-08-05T03:24:46;15.77;;;6.13;;
64923;SDS011;51436;44.692;39.214;2022-08-05T03:27:14;7.82;;;5.90;;
64923;SDS011;51436;44.692;39.214;2022-08-05T03:29:41;7.47;;;5.93;;
64923;SDS011;51436;44.692;39.214;2022-08-05T03:32:07;9.55;;;6.18;;
64923;SDS011;51436;44.692;39.214;2022-08-05T03:34:34;8.75;;;6.32;;
64923;SDS011;51436;44.692;39.214;2022-08-05T03:37:02;10.75;;;6.93;;
64923;SDS011;51436;44.692;39.214;2022-08-05T03:39:29;9.98;;;5.93;;
64923;SDS011;51436;44.692;39.214;2022-08-05T03:41:55;20.30;;;6.20;;
64923;SDS011;51436;44.692;39.214;2022-08-05T03:44:22;9.73;;;6.35;;
64923;SDS011;51436;44.692;39.214;2022-08-05T03:46:49;9.13;;;6.70;;
64923;SDS011;51436;44.692;39.214;2022-08-05T03:49:16;14.43;;;6.30;;
64923;SDS011;51436;44.692;39.214;2022-08-05T03:54:29;11.13;;;6.23;;
64923;SDS011;51436;44.692;39.214;2022-08-05T03:56:57;9.70;;;5.85;;
64923;SDS011;51436;44.692;39.214;2022-08-05T03:59:35;11.10;;;6.60;;
64923;SDS011;51436;44.692;39.214;2022-08-05T04:02:06;9.15;;;5.50;;
64923;SDS011;51436;44.692;39.214;2022-08-05T04:04:34;13.10;;;5.22;;
64923;SDS011;51436;44.692;39.214;2022-08-05T04:07:01;8.13;;;5.30;;
64923;SDS011;51436;44.692;39.214;2022-08-05T04:09:30;8.23;;;4.85;;
64923;SDS011;51436;44.692;39.214;2022-08-05T04:11:57;16.58;;;5.43;;
64923;SDS011;51436;44.692;39.214;2022-08-05T04:14:24;7.60;;;5.13;;
64923;SDS011;51436;44.692;39.214;2022-08-05T04:16:51;9.02;;;5.13;;
64923;SDS011;51436;44.692;39.214;2022-08-05T04:19:18;8.32;;;5.03;;
64923;SDS011;51436;44.692;39.214;2022-08-05T04:21:45;12.15;;;4.97;;
64923;SDS011;51436;44.692;39.214;2022-08-05T04:24:14;9.18;;;5.35;;
64923;SDS011;51436;44.692;39.214;2022-08-05T04:26:40;9.55;;;4.93;;
64923;SDS011;51436;44.692;39.214;2022-08-05T04:29:07;10.10;;;4.95;;
64923;SDS011;51436;44.692;39.214;2022-08-05T04:31:33;6.65;;;4.35;;
64923;SDS011;51436;44.692;39.214;2022-08-05T04:33:59;13.40;;;5.18;;
64923;SDS011;51436;44.692;39.214;2022-08-05T04:36:26;11.05;;;4.70;;
64923;SDS011;51436;44.692;39.214;2022-08-05T04:38:52;7.70;;;4.90;;
64923;SDS011;51436;44.692;39.214;2022-08-05T04:41:19;8.65;;;5.40;;
64923;SDS011;51436;44.692;39.214;2022-08-05T04:43:45;7.18;;;5.18;;
64923;SDS011;51436;44.692;39.214;2022-08-05T04:46:12;8.85;;;4.90;;
64923;SDS011;51436;44.692;39.214;2022-08-05T04:48:38;10.60;;;5.30;;
64923;SDS011;51436;44.692;39.214;2022-08-05T04:51:04;9.48;;;5.00;;
64923;SDS011;51436;44.692;39.214;2022-08-05T04:53:31;7.05;;;4.72;;
64923;SDS011;51436;44.692;39.214;2022-08-05T04:55:57;5.93;;;4.63;;
64923;SDS011;51436;44.692;39.214;2022-08-05T04:58:24;6.13;;;5.25;;
64923;SDS011;51436;44.692;39.214;2022-08-05T05:00:50;8.55;;;5.05;;
64923;SDS011;51436;44.692;39.214;2022-08-05T05:03:16;11.73;;;5.28;;
64923;SDS011;51436;44.692;39.214;2022-08-05T05:05:42;12.60;;;5.47;;
64923;SDS011;51436;44.692;39.214;2022-08-05T05:08:09;10.35;;;5.00;;
64923;SDS011;51436;44.692;39.214;2022-08-05T05:10:39;12.45;;;4.68;;
64923;SDS011;51436;44.692;39.214;2022-08-05T05:13:11;9.00;;;4.73;;
64923;SDS011;51436;44.692;39.214;2022-08-05T05:15:39;10.82;;;5.15;;
64923;SDS011;51436;44.692;39.214;2022-08-05T05:18:06;5.53;;;4.95;;
64923;SDS011;51436;44.692;39.214;2022-08-05T05:20:33;6.78;;;4.68;;
64923;SDS011;51436;44.692;39.214;2022-08-05T05:23:00;10.93;;;5.53;;
64923;SDS011;51436;44.692;39.214;2022-08-05T05:25:30;15.48;;;4.93;;
64923;SDS011;51436;44.692;39.214;2022-08-05T05:27:57;9.68;;;4.82;;
64923;SDS011;51436;44.692;39.214;2022-08-05T05:30:24;8.90;;;5.35;;
64923;SDS011;51436;44.692;39.214;2022-08-05T05:32:50;9.38;;;5.47;;
64923;SDS011;51436;44.692;39.214;2022-08-05T05:35:17;8.38;;;4.95;;
64923;SDS011;51436;44.692;39.214;2022-08-05T05:37:49;6.10;;;5.38;;
64923;SDS011;51436;44.692;39.214;2022-08-05T05:40:18;8.18;;;5.82;;
64923;SDS011;51436;44.692;39.214;2022-08-05T05:42:46;7.75;;;4.88;;
64923;SDS011;51436;44.692;39.214;2022-08-05T05:45:13;10.93;;;4.90;;
64923;SDS011;51436;44.692;39.214;2022-08-05T05:47:40;13.45;;;5.60;;
64923;SDS011;51436;44.692;39.214;2022-08-05T05:50:08;14.57;;;5.30;;
64923;SDS011;51436;44.692;39.214;2022-08-05T05:52:36;15.95;;;5.43;;
64923;SDS011;51436;44.692;39.214;2022-08-05T05:55:04;14.85;;;5.75;;
64923;SDS011;51436;44.692;39.214;2022-08-05T05:57:36;7.05;;;5.10;;
64923;SDS011;51436;44.692;39.214;2022-08-05T06:00:04;7.45;;;5.45;;
64923;SDS011;51436;44.692;39.214;2022-08-05T06:02:37;8.15;;;5.72;;
64923;SDS011;51436;44.692;39.214;2022-08-05T06:05:07;13.63;;;5.65;;
64923;SDS011;51436;44.692;39.214;2022-08-05T06:07:36;8.00;;;5.95;;
64923;SDS011;51436;44.692;39.214;2022-08-05T06:10:03;7.50;;;5.93;;
64923;SDS011;51436;44.692;39.214;2022-08-05T06:12:32;11.75;;;6.45;;
64923;SDS011;51436;44.692;39.214;2022-08-05T06:15:00;15.60;;;6.45;;
64923;SDS011;51436;44.692;39.214;2022-08-05T06:17:27;15.68;;;6.25;;
64923;SDS011;51436;44.692;39.214;2022-08-05T06:19:53;17.05;;;6.63;;
64923;SDS011;51436;44.692;39.214;2022-08-05T06:22:23;8.02;;;6.13;;
64923;SDS011;51436;44.692;39.214;2022-08-05T06:24:51;8.38;;;6.55;;
64923;SDS011;51436;44.692;39.214;2022-08-05T06:27:17;7.97;;;6.32;;
64923;SDS011;51436;44.692;39.214;2022-08-05T06:29:44;15.88;;;6.60;;
64923;SDS011;51436;44.692;39.214;2022-08-05T06:32:10;10.07;;;6.97;;
64923;SDS011;51436;44.692;39.214;2022-08-05T06:34:37;18.08;;;6.63;;
64923;SDS011;51436;44.692;39.214;2022-08-05T06:37:03;9.32;;;6.50;;
64923;SDS011;51436;44.692;39.214;2022-08-05T06:39:30;12.60;;;6.88;;
64923;SDS011;51436;44.692;39.214;2022-08-05T06:41:57;15.75;;;6.00;;
64923;SDS011;51436;44.692;39.214;2022-08-05T06:44:29;8.52;;;5.88;;
64923;SDS011;51436;44.692;39.214;2022-08-05T06:46:56;8.52;;;5.55;;
64923;SDS011;51436;44.692;39.214;2022-08-05T06:49:23;11.73;;;6.63;;
64923;SDS011;51436;44.692;39.214;2022-08-05T06:51:49;11.30;;;5.95;;
64923;SDS011;51436;44.692;39.214;2022-08-05T06:54:16;12.27;;;6.90;;
64923;SDS011;51436;44.692;39.214;2022-08-05T06:56:42;18.75;;;7.07;;
64923;SDS011;51436;44.692;39.214;2022-08-05T06:59:09;20.70;;;7.07;;
64923;SDS011;51436;44.692;39.214;2022-08-05T07:01:39;11.20;;;6.78;;
64923;SDS011;51436;44.692;39.214;2022-08-05T07:04:05;12.52;;;6.85;;
64923;SDS011;51436;44.692;39.214;2022-08-05T07:06:31;8.57;;;6.15;;
64923;SDS011;51436;44.692;39.214;2022-08-05T07:08:58;8.55;;;5.95;;
64923;SDS011;51436;44.692;39.214;2022-08-05T07:11:25;9.55;;;6.18;;
64923;SDS011;51436;44.692;39.214;2022-08-05T07:13:53;14.50;;;5.63;;
64923;SDS011;51436;44.692;39.214;2022-08-05T07:16:37;7.35;;;5.95;;
64923;SDS011;51436;44.692;39.214;2022-08-05T07:19:20;7.20;;;5.68;;
64923;SDS011;51436;44.692;39.214;2022-08-05T07:21:48;9.70;;;6.18;;
64923;SDS011;51436;44.692;39.214;2022-08-05T07:24:15;12.82;;;6.50;;
64923;SDS011;51436;44.692;39.214;2022-08-05T07:26:42;12.65;;;6.60;;
64923;SDS011;51436;44.692;39.214;2022-08-05T07:29:11;9.77;;;6.28;;
64923;SDS011;51436;44.692;39.214;2022-08-05T07:31:38;12.60;;;6.57;;
64923;SDS011;51436;44.692;39.214;2022-08-05T07:34:05;8.75;;;6.07;;
64923;SDS011;51436;44.692;39.214;2022-08-05T07:36:31;16.80;;;6.25;;
64923;SDS011;51436;44.692;39.214;2022-08-05T07:39:02;8.90;;;6.35;;
64923;SDS011;51436;44.692;39.214;2022-08-05T07:41:32;10.70;;;6.75;;
64923;SDS011;51436;44.692;39.214;2022-08-05T07:44:00;10.15;;;6.35;;
64923;SDS011;51436;44.692;39.214;2022-08-05T07:46:28;11.80;;;6.30;;
64923;SDS011;51436;44.692;39.214;2022-08-05T07:48:56;14.73;;;7.53;;
64923;SDS011;51436;44.692;39.214;2022-08-05T07:51:24;16.35;;;7.05;;
64923;SDS011;51436;44.692;39.214;2022-08-05T07:53:50;8.80;;;6.45;;
64923;SDS011;51436;44.692;39.214;2022-08-05T07:56:17;13.13;;;6.63;;
64923;SDS011;51436;44.692;39.214;2022-08-05T07:58:43;11.73;;;6.95;;
64923;SDS011;51436;44.692;39.214;2022-08-05T08:01:10;15.52;;;6.47;;
64923;SDS011;51436;44.692;39.214;2022-08-05T08:03:37;16.30;;;7.00;;
64923;SDS011;51436;44.692;39.214;2022-08-05T08:06:03;8.35;;;5.85;;
64923;SDS011;51436;44.692;39.214;2022-08-05T08:08:30;15.50;;;7.13;;
64923;SDS011;51436;44.692;39.214;2022-08-05T08:10:56;16.50;;;6.13;;
64923;SDS011;51436;44.692;39.214;2022-08-05T08:13:22;15.10;;;6.43;;
64923;SDS011;51436;44.692;39.214;2022-08-05T08:15:49;21.00;;;6.47;;
64923;SDS011;51436;44.692;39.214;2022-08-05T08:18:15;9.13;;;5.13;;
64923;SDS011;51436;44.692;39.214;2022-08-05T08:20:42;6.45;;;5.55;;
64923;SDS011;51436;44.692;39.214;2022-08-05T08:23:08;11.65;;;6.13;;
64923;SDS011;51436;44.692;39.214;2022-08-05T08:25:34;10.27;;;5.93;;
64923;SDS011;51436;44.692;39.214;2022-08-05T08:28:01;9.93;;;6.85;;
64923;SDS011;51436;44.692;39.214;2022-08-05T08:30:27;10.82;;;6.70;;
64923;SDS011;51436;44.692;39.214;2022-08-05T08:32:53;11.30;;;7.25;;
64923;SDS011;51436;44.692;39.214;2022-08-05T08:35:20;18.92;;;6.85;;
64923;SDS011;51436;44.692;39.214;2022-08-05T08:37:46;17.92;;;6.68;;
64923;SDS011;51436;44.692;39.214;2022-08-05T08:40:12;12.93;;;7.30;;
64923;SDS011;51436;44.692;39.214;2022-08-05T08:42:39;14.52;;;6.63;;
64923;SDS011;51436;44.692;39.214;2022-08-05T08:45:07;13.88;;;6.35;;
64923;SDS011;51436;44.692;39.214;2022-08-05T08:47:35;12.68;;;6.80;;
64923;SDS011;51436;44.692;39.214;2022-08-05T08:50:02;16.20;;;5.95;;
64923;SDS011;51436;44.692;39.214;2022-08-05T08:52:31;7.90;;;5.78;;
64923;SDS011;51436;44.692;39.214;2022-08-05T08:55:00;17.25;;;6.20;;
64923;SDS011;51436;44.692;39.214;2022-08-05T08:57:28;8.32;;;5.38;;
64923;SDS011;51436;44.692;39.214;2022-08-05T08:59:55;11.15;;;5.53;;
64923;SDS011;51436;44.692;39.214;2022-08-05T09:02:23;6.70;;;5.18;;
64923;SDS011;51436;44.692;39.214;2022-08-05T09:04:50;10.60;;;5.45;;
64923;SDS011;51436;44.692;39.214;2022-08-05T09:07:16;7.95;;;5.88;;
64923;SDS011;51436;44.692;39.214;2022-08-05T09:09:43;14.57;;;6.63;;
64923;SDS011;51436;44.692;39.214;2022-08-05T09:12:09;15.85;;;7.13;;
64923;SDS011;51436;44.692;39.214;2022-08-05T09:14:37;9.23;;;6.65;;
64923;SDS011;51436;44.692;39.214;2022-08-05T09:17:05;11.18;;;6.97;;
64923;SDS011;51436;44.692;39.214;2022-08-05T09:19:33;11.45;;;6.80;;
64923;SDS011;51436;44.692;39.214;2022-08-05T09:22:01;14.30;;;6.13;;
64923;SDS011;51436;44.692;39.214;2022-08-05T09:24:27;11.45;;;6.40;;
64923;SDS011;51436;44.692;39.214;2022-08-05T09:26:57;10.85;;;5.93;;
64923;SDS011;51436;44.692;39.214;2022-08-05T09:29:39;12.90;;;6.28;;
64923;SDS011;51436;44.692;39.214;2022-08-05T09:32:10;10.82;;;6.55;;
64923;SDS011;51436;44.692;39.214;2022-08-05T09:34:50;8.68;;;6.15;;
64923;SDS011;51436;44.692;39.214;2022-08-05T09:37:20;10.83;;;6.73;;
64923;SDS011;51436;44.692;39.214;2022-08-05T09:39:48;9.90;;;6.68;;
64923;SDS011;51436;44.692;39.214;2022-08-05T09:42:18;13.50;;;6.10;;
64923;SDS011;51436;44.692;39.214;2022-08-05T09:44:48;12.55;;;5.88;;
64923;SDS011;51436;44.692;39.214;2022-08-05T09:47:17;11.35;;;6.57;;
64923;SDS011;51436;44.692;39.214;2022-08-05T09:49:44;10.20;;;6.13;;
64923;SDS011;51436;44.692;39.214;2022-08-05T09:52:18;13.38;;;6.57;;
64923;SDS011;51436;44.692;39.214;2022-08-05T09:54:54;8.75;;;5.78;;
64923;SDS011;51436;44.692;39.214;2022-08-05T09:57:34;11.38;;;5.90;;
64923;SDS011;51436;44.692;39.214;2022-08-05T10:00:07;14.50;;;6.68;;
64923;SDS011;51436;44.692;39.214;2022-08-05T10:02:46;7.53;;;6.03;;
64923;SDS011;51436;44.692;39.214;2022-08-05T10:05:20;8.90;;;5.90;;
64923;SDS011;51436;44.692;39.214;2022-08-05T10:08:04;12.07;;;5.68;;
64923;SDS011;51436;44.692;39.214;2022-08-05T10:10:35;8.68;;;5.93;;
64923;SDS011;51436;44.692;39.214;2022-08-05T10:13:04;8.23;;;5.22;;
64923;SDS011;51436;44.692;39.214;2022-08-05T10:15:32;8.30;;;5.38;;
64923;SDS011;51436;44.692;39.214;2022-08-05T10:23:21;8.65;;;5.28;;
64923;SDS011;51436;44.692;39.214;2022-08-05T10:25:55;9.82;;;5.40;;
64923;SDS011;51436;44.692;39.214;2022-08-05T10:28:23;7.32;;;4.90;;
64923;SDS011;51436;44.692;39.214;2022-08-05T10:30:52;6.88;;;5.20;;
64923;SDS011;51436;44.692;39.214;2022-08-05T10:33:20;8.10;;;5.35;;
64923;SDS011;51436;44.692;39.214;2022-08-05T10:35:48;13.32;;;5.45;;
64923;SDS011;51436;44.692;39.214;2022-08-05T10:38:17;11.57;;;5.00;;
64923;SDS011;51436;44.692;39.214;2022-08-05T10:46:13;10.45;;;4.88;;
64923;SDS011;51436;44.692;39.214;2022-08-05T10:48:42;11.77;;;5.00;;
64923;SDS011;51436;44.692;39.214;2022-08-05T10:51:13;12.02;;;5.32;;
64923;SDS011;51436;44.692;39.214;2022-08-05T10:53:55;8.07;;;4.05;;
64923;SDS011;51436;44.692;39.214;2022-08-05T10:56:24;4.93;;;4.40;;
64923;SDS011;51436;44.692;39.214;2022-08-05T11:01:31;4.55;;;4.13;;
64923;SDS011;51436;44.692;39.214;2022-08-05T11:04:03;4.88;;;4.18;;
64923;SDS011;51436;44.692;39.214;2022-08-05T11:12:46;4.63;;;3.80;;
64923;SDS011;51436;44.692;39.214;2022-08-05T11:17:49;5.20;;;3.70;;
64923;SDS011;51436;44.692;39.214;2022-08-05T11:28:39;8.00;;;5.75;;
64923;SDS011;51436;44.692;39.214;2022-08-05T11:33:35;7.03;;;3.92;;
64923;SDS011;51436;44.692;39.214;2022-08-05T11:36:06;4.97;;;4.00;;
64923;SDS011;51436;44.692;39.214;2022-08-05T11:41:07;11.60;;;4.25;;
64923;SDS011;51436;44.692;39.214;2022-08-05T11:46:24;3.72;;;3.30;;
64923;SDS011;51436;44.692;39.214;2022-08-05T11:48:51;6.70;;;3.90;;
64923;SDS011;51436;44.692;39.214;2022-08-05T11:51:18;4.45;;;4.05;;
64923;SDS011;51436;44.692;39.214;2022-08-05T11:53:47;8.15;;;4.00;;
64923;SDS011;51436;44.692;39.214;2022-08-05T11:56:13;8.70;;;3.67;;
64923;SDS011;51436;44.692;39.214;2022-08-05T11:58:41;4.90;;;3.90;;
64923;SDS011;51436;44.692;39.214;2022-08-05T12:01:10;8.00;;;3.88;;
64923;SDS011;51436;44.692;39.214;2022-08-05T12:03:50;5.00;;;4.00;;
64923;SDS011;51436;44.692;39.214;2022-08-05T12:06:20;4.85;;;3.95;;
64923;SDS011;51436;44.692;39.214;2022-08-05T12:08:52;14.25;;;5.05;;
64923;SDS011;51436;44.692;39.214;2022-08-05T12:11:21;51.33;;;6.05;;
64923;SDS011;51436;44.692;39.214;2022-08-05T12:13:53;61.92;;;6.35;;
64923;SDS011;51436;44.692;39.214;2022-08-05T12:16:23;31.65;;;5.90;;
64923;SDS011;51436;44.692;39.214;2022-08-05T12:18:53;42.22;;;5.57;;
64923;SDS011;51436;44.692;39.214;2022-08-05T12:21:25;42.28;;;6.00;;
64923;SDS011;51436;44.692;39.214;2022-08-05T12:24:06;19.25;;;5.10;;
64923;SDS011;51436;44.692;39.214;2022-08-05T12:26:35;23.65;;;4.90;;
64923;SDS011;51436;44.692;39.214;2022-08-05T12:29:07;8.90;;;4.70;;
64923;SDS011;51436;44.692;39.214;2022-08-05T12:31:36;9.25;;;4.80;;
64923;SDS011;51436;44.692;39.214;2022-08-05T12:34:02;6.57;;;4.97;;
64923;SDS011;51436;44.692;39.214;2022-08-05T12:36:31;9.93;;;5.20;;
64923;SDS011;51436;44.692;39.214;2022-08-05T12:38:59;6.30;;;5.43;;
64923;SDS011;51436;44.692;39.214;2022-08-05T12:41:29;7.57;;;5.32;;
64923;SDS011;51436;44.692;39.214;2022-08-05T12:44:01;8.73;;;5.25;;
64923;SDS011;51436;44.692;39.214;2022-08-05T12:46:36;8.98;;;5.72;;
64923;SDS011;51436;44.692;39.214;2022-08-05T12:54:19;9.27;;;4.95;;
64923;SDS011;51436;44.692;39.214;2022-08-05T12:56:57;7.93;;;4.80;;
64923;SDS011;51436;44.692;39.214;2022-08-05T12:59:29;7.05;;;4.75;;
64923;SDS011;51436;44.692;39.214;2022-08-05T13:04:32;8.63;;;5.47;;
64923;SDS011;51436;44.692;39.214;2022-08-05T13:07:00;6.60;;;4.57;;
64923;SDS011;51436;44.692;39.214;2022-08-05T13:09:28;7.28;;;4.88;;
64923;SDS011;51436;44.692;39.214;2022-08-05T13:12:02;7.97;;;5.13;;
64923;SDS011;51436;44.692;39.214;2022-08-05T13:14:42;17.75;;;5.72;;
64923;SDS011;51436;44.692;39.214;2022-08-05T13:22:47;8.93;;;5.45;;
64923;SDS011;51436;44.692;39.214;2022-08-05T13:25:15;8.27;;;4.80;;
64923;SDS011;51436;44.692;39.214;2022-08-05T13:27:45;6.60;;;4.82;;
64923;SDS011;51436;44.692;39.214;2022-08-05T13:30:14;6.82;;;5.40;;
64923;SDS011;51436;44.692;39.214;2022-08-05T13:32:41;9.02;;;4.82;;
64923;SDS011;51436;44.692;39.214;2022-08-05T13:35:12;7.82;;;5.18;;
64923;SDS011;51436;44.692;39.214;2022-08-05T13:37:38;8.68;;;4.90;;
64923;SDS011;51436;44.692;39.214;2022-08-05T13:40:06;5.70;;;4.70;;
64923;SDS011;51436;44.692;39.214;2022-08-05T13:42:33;7.25;;;4.80;;
64923;SDS011;51436;44.692;39.214;2022-08-05T13:45:00;14.63;;;5.22;;
64923;SDS011;51436;44.692;39.214;2022-08-05T13:47:26;25.88;;;5.13;;
64923;SDS011;51436;44.692;39.214;2022-08-05T13:49:53;15.07;;;4.43;;
64923;SDS011;51436;44.692;39.214;2022-08-05T13:52:20;15.40;;;4.68;;
64923;SDS011;51436;44.692;39.214;2022-08-05T13:54:48;13.85;;;4.95;;
64923;SDS011;51436;44.692;39.214;2022-08-05T13:57:14;7.43;;;4.93;;
64923;SDS011;51436;44.692;39.214;2022-08-05T13:59:41;7.25;;;4.72;;
64923;SDS011;51436;44.692;39.214;2022-08-05T14:02:08;7.68;;;4.65;;
64923;SDS011;51436;44.692;39.214;2022-08-05T14:04:40;6.25;;;4.70;;
64923;SDS011;51436;44.692;39.214;2022-08-05T14:07:47;9.90;;;4.60;;
64923;SDS011;51436;44.692;39.214;2022-08-05T14:10:17;5.75;;;4.53;;
64923;SDS011;51436;44.692;39.214;2022-08-05T14:12:45;8.20;;;4.57;;
64923;SDS011;51436;44.692;39.214;2022-08-05T14:15:11;8.90;;;4.40;;
64923;SDS011;51436;44.692;39.214;2022-08-05T14:17:38;7.82;;;5.10;;
64923;SDS011;51436;44.692;39.214;2022-08-05T14:20:05;23.63;;;7.18;;
64923;SDS011;51436;44.692;39.214;2022-08-05T14:22:32;8.32;;;5.18;;
64923;SDS011;51436;44.692;39.214;2022-08-05T14:24:59;6.95;;;5.07;;
64923;SDS011;51436;44.692;39.214;2022-08-05T14:27:25;7.40;;;4.60;;
64923;SDS011;51436;44.692;39.214;2022-08-05T14:29:51;7.22;;;4.82;;
64923;SDS011;51436;44.692;39.214;2022-08-05T14:32:18;12.10;;;4.93;;
64923;SDS011;51436;44.692;39.214;2022-08-05T14:34:44;11.88;;;5.35;;
64923;SDS011;51436;44.692;39.214;2022-08-05T14:37:10;8.98;;;5.07;;
64923;SDS011;51436;44.692;39.214;2022-08-05T14:39:37;9.25;;;5.28;;
64923;SDS011;51436;44.692;39.214;2022-08-05T14:42:03;9.20;;;5.10;;
64923;SDS011;51436;44.692;39.214;2022-08-05T14:44:29;11.85;;;7.53;;
64923;SDS011;51436;44.692;39.214;2022-08-05T14:46:56;10.48;;;7.65;;
64923;SDS011;51436;44.692;39.214;2022-08-05T14:49:22;14.48;;;6.60;;
64923;SDS011;51436;44.692;39.214;2022-08-05T14:51:48;12.07;;;5.80;;
64923;SDS011;51436;44.692;39.214;2022-08-05T14:54:15;14.38;;;5.57;;
64923;SDS011;51436;44.692;39.214;2022-08-05T14:56:41;12.60;;;6.07;;
64923;SDS011;51436;44.692;39.214;2022-08-05T14:59:26;18.45;;;6.18;;
64923;SDS011;51436;44.692;39.214;2022-08-05T15:01:53;22.55;;;6.07;;
64923;SDS011;51436;44.692;39.214;2022-08-05T15:04:20;21.08;;;5.93;;
64923;SDS011;51436;44.692;39.214;2022-08-05T15:06:47;13.75;;;5.10;;
64923;SDS011;51436;44.692;39.214;2022-08-05T15:09:15;14.93;;;5.82;;
64923;SDS011;51436;44.692;39.214;2022-08-05T15:11:45;9.95;;;5.40;;
64923;SDS011;51436;44.692;39.214;2022-08-05T15:14:11;11.20;;;5.03;;
64923;SDS011;51436;44.692;39.214;2022-08-05T15:16:39;14.85;;;6.30;;
64923;SDS011;51436;44.692;39.214;2022-08-05T15:19:05;9.55;;;5.40;;
64923;SDS011;51436;44.692;39.214;2022-08-05T15:21:31;31.85;;;4.80;;
64923;SDS011;51436;44.692;39.214;2022-08-05T15:23:58;19.80;;;5.45;;
64923;SDS011;51436;44.692;39.214;2022-08-05T15:26:24;25.55;;;5.07;;
64923;SDS011;51436;44.692;39.214;2022-08-05T15:28:50;22.92;;;5.38;;
64923;SDS011;51436;44.692;39.214;2022-08-05T15:31:17;23.92;;;5.80;;
64923;SDS011;51436;44.692;39.214;2022-08-05T15:33:43;16.80;;;5.43;;
64923;SDS011;51436;44.692;39.214;2022-08-05T15:36:09;27.73;;;5.40;;
64923;SDS011;51436;44.692;39.214;2022-08-05T15:38:54;14.57;;;5.85;;
64923;SDS011;51436;44.692;39.214;2022-08-05T15:41:20;21.08;;;5.45;;